Time;durP1;ratioP1;P1;durP2;ratioP2;P2;SDS_P1;SDS_P2;PMS_P1;PMS_P2;Temp;Humidity;BMP_temperature;BMP_pressure;BME280_temperature;BME280_humidity;BME280_pressure;Samples;Min_cycle;Max_cycle;Signal;HPM_P1;HPM_P2
2021/01/17 00:00:43;;;;;;;60.17;29.02;;;;;;;-1.20;100.00;101200.75;5031030;28;20041;-89
2021/01/17 00:03:08;;;;;;;66.28;35.33;;;;;;;-1.15;100.00;101198.72;5032555;28;20069;-90
2021/01/17 00:05:34;;;;;;;66.40;37.10;;;;;;;-1.11;100.00;101195.94;5029174;28;20072;-89
2021/01/17 00:08:00;;;;;;;67.72;38.17;;;;;;;-1.08;100.00;101190.50;5031865;28;20049;-90
2021/01/17 00:10:27;;;;;;;65.57;37.65;;;;;;;-1.10;100.00;101195.00;5031070;28;20026;-90
2021/01/17 00:12:55;;;;;;;70.93;38.67;;;;;;;-1.06;100.00;101193.91;5035399;28;20032;-90
2021/01/17 00:15:22;;;;;;;63.88;37.08;;;;;;;-1.13;100.00;101196.00;5032219;28;20042;-90
2021/01/17 00:17:47;;;;;;;67.05;37.08;;;;;;;-1.08;100.00;101193.13;5032334;28;20620;-90
2021/01/17 00:20:18;;;;;;;72.22;40.25;;;;;;;-1.04;100.00;101200.78;5032562;28;20064;-89
2021/01/17 00:22:45;;;;;;;70.40;39.85;;;;;;;-1.06;100.00;101196.56;5030842;28;20687;-90
2021/01/17 00:25:13;;;;;;;67.25;35.13;;;;;;;-1.10;100.00;101195.00;5024277;28;20564;-90
2021/01/17 00:27:39;;;;;;;67.80;34.23;;;;;;;-1.15;100.00;101188.19;5048306;28;20053;-89
2021/01/17 00:30:07;;;;;;;74.30;42.65;;;;;;;-1.06;100.00;101191.28;5024064;28;20839;-91
2021/01/17 00:32:32;;;;;;;71.15;39.13;;;;;;;-1.06;100.00;101181.59;5030836;28;20087;-91
2021/01/17 00:34:58;;;;;;;75.00;43.00;;;;;;;-1.03;100.00;101177.94;5013626;28;20042;-91
2021/01/17 00:37:23;;;;;;;66.93;35.13;;;;;;;-1.10;100.00;101179.19;5031664;28;20045;-90
2021/01/17 00:39:49;;;;;;;76.30;42.67;;;;;;;-1.07;100.00;101171.13;5033676;28;20033;-89
2021/01/17 00:42:16;;;;;;;79.90;43.22;;;;;;;-1.01;100.00;101168.16;5031995;28;20042;-90
2021/01/17 00:44:42;;;;;;;71.97;36.90;;;;;;;-1.11;100.00;101161.69;5031331;28;20127;-91
2021/01/17 00:47:14;;;;;;;76.80;41.03;;;;;;;-1.05;100.00;101166.63;5031420;28;20033;-90
2021/01/17 00:49:43;;;;;;;77.20;43.63;;;;;;;-1.03;100.00;101164.78;5031822;28;20124;-90
2021/01/17 00:52:14;;;;;;;77.35;41.72;;;;;;;-1.03;100.00;101168.25;5032422;28;20034;-90
2021/01/17 00:54:39;;;;;;;66.63;32.80;;;;;;;-1.11;100.00;101166.97;5046753;28;20508;-90
2021/01/17 00:57:05;;;;;;;74.20;36.75;;;;;;;-1.09;100.00;101154.53;5031029;28;20041;-91
2021/01/17 00:59:31;;;;;;;72.15;39.05;;;;;;;-1.10;100.00;101147.56;5030160;28;20037;-90
2021/01/17 01:01:56;;;;;;;79.47;43.88;;;;;;;-1.05;100.00;101156.09;5016612;28;20163;-91
2021/01/17 01:04:22;;;;;;;80.30;44.33;;;;;;;-1.05;100.00;101151.66;5034343;28;20048;-90
2021/01/17 01:06:50;;;;;;;76.05;42.65;;;;;;;-1.09;100.00;101157.16;5034192;28;20100;-90
2021/01/17 01:09:16;;;;;;;80.65;44.13;;;;;;;-1.02;100.00;101158.56;5030310;28;20494;-88
2021/01/17 01:11:42;;;;;;;79.32;43.92;;;;;;;-1.07;100.00;101150.03;5031140;28;20049;-90
2021/01/17 01:14:13;;;;;;;80.47;40.58;;;;;;;-1.10;100.00;101158.13;5046494;28;20045;-90
2021/01/17 01:17:06;;;;;;;75.72;41.92;;;;;;;-1.04;100.00;101152.53;5040144;28;20493;-89
2021/01/17 01:19:47;;;;;;;78.20;43.10;;;;;;;-1.05;100.00;101158.72;5026927;28;20091;-90
2021/01/17 01:22:25;;;;;;;75.45;40.00;;;;;;;-1.08;100.00;101157.09;5029538;28;20029;-90
2021/01/17 01:24:52;;;;;;;76.10;40.90;;;;;;;-1.07;100.00;101156.16;5029640;28;20045;-91
2021/01/17 01:27:17;;;;;;;75.82;37.50;;;;;;;-1.08;100.00;101158.88;5045909;28;20131;-90
2021/01/17 01:29:42;;;;;;;77.43;41.03;;;;;;;-1.03;100.00;101152.44;5029957;28;20045;-91
2021/01/17 01:32:08;;;;;;;79.15;43.92;;;;;;;-1.05;100.00;101151.66;5047031;28;20038;-90
2021/01/17 01:34:33;;;;;;;69.68;32.97;;;;;;;-1.08;100.00;101158.88;5030856;28;20095;-90
2021/01/17 01:36:59;;;;;;;72.55;37.03;;;;;;;-1.07;100.00;101157.94;5047350;28;20051;-90
2021/01/17 01:39:24;;;;;;;78.45;40.70;;;;;;;-1.04;100.00;101155.16;5029722;28;20046;-89
2021/01/17 01:41:52;;;;;;;77.38;43.35;;;;;;;-1.03;100.00;101151.59;5030892;28;20041;-90
2021/01/17 01:44:17;;;;;;;80.80;46.40;;;;;;;-0.93;100.00;101150.16;5046367;28;20060;-90
2021/01/17 01:46:43;;;;;;;70.65;35.90;;;;;;;-1.02;100.00;101158.56;5030340;28;20083;-89
2021/01/17 01:49:09;;;;;;;83.25;42.90;;;;;;;-0.96;100.00;101158.22;5027126;28;20025;-91
2021/01/17 01:51:37;;;;;;;84.90;45.35;;;;;;;-0.96;100.00;101152.97;5030192;28;20453;-89
2021/01/17 01:54:04;;;;;;;82.20;43.20;;;;;;;-0.97;100.00;101146.84;5031388;28;20084;-90
2021/01/17 01:56:30;;;;;;;74.88;40.50;;;;;;;-0.99;100.00;101153.13;5029198;28;21150;-91
2021/01/17 01:58:55;;;;;;;79.05;41.45;;;;;;;-0.99;100.00;101155.78;5028937;28;20041;-89
2021/01/17 02:01:24;;;;;;;79.68;39.65;;;;;;;-1.00;100.00;101148.81;5029038;28;20048;-89
2021/01/17 02:03:51;;;;;;;76.78;37.35;;;;;;;-0.97;100.00;101148.66;5048957;28;20036;-89
2021/01/17 02:06:23;;;;;;;81.45;42.33;;;;;;;-0.97;100.00;101148.66;5025508;28;20099;-90
2021/01/17 02:08:57;;;;;;;78.45;40.97;;;;;;;-1.02;100.00;101151.50;5030419;28;20517;-90
2021/01/17 02:11:36;;;;;;;74.18;35.55;;;;;;;-1.01;100.00;101140.03;5028026;28;20426;-90
2021/01/17 02:14:26;;;;;;;88.68;48.17;;;;;;;-0.95;100.00;101144.13;5028928;28;20038;-89
2021/01/17 02:16:54;;;;;;;83.50;41.97;;;;;;;-0.93;100.00;101144.91;5021249;28;20649;-89
2021/01/17 02:19:21;;;;;;;89.07;47.33;;;;;;;-0.91;100.00;101148.31;5028985;28;20537;-90
2021/01/17 02:21:58;;;;;;;83.18;45.88;;;;;;;-0.92;100.00;101147.47;5048278;28;20031;-90
2021/01/17 02:24:32;;;;;;;89.05;46.78;;;;;;;-0.94;100.00;101148.47;5026913;28;20041;-89
2021/01/17 02:26:59;;;;;;;87.80;42.88;;;;;;;-0.95;100.00;101149.38;5029449;28;20512;-90
2021/01/17 02:29:26;;;;;;;86.05;39.63;;;;;;;-0.94;100.00;101146.69;5046360;28;20080;-90
2021/01/17 02:31:57;;;;;;;92.70;48.58;;;;;;;-0.91;100.00;101137.78;5029905;28;20121;-91
2021/01/17 02:34:26;;;;;;;90.50;43.00;;;;;;;-0.95;100.00;101136.22;5026488;28;20052;-90
2021/01/17 02:37:00;;;;;;;;;;;;;;;-0.89;100.00;101135.03;5031988;28;20083;-90
2021/01/17 02:39:43;;;;;;;89.78;41.13;;;;;;;-1.00;100.00;101133.84;5043574;28;19913;-90
2021/01/17 02:42:08;;;;;;;78.28;34.45;;;;;;;-1.01;100.00;101126.84;5024677;28;20132;-90
2021/01/17 02:44:34;;;;;;;92.95;46.92;;;;;;;-0.94;100.00;101122.13;5030299;28;20132;-89
2021/01/17 02:47:01;;;;;;;89.22;44.33;;;;;;;-0.93;100.00;101116.75;5032949;28;20097;-89
2021/01/17 02:49:27;;;;;;;90.60;44.97;;;;;;;-0.89;100.00;101113.97;5031426;28;20071;-89
2021/01/17 02:51:53;;;;;;;95.72;50.90;;;;;;;-0.83;100.00;101119.78;5048308;28;20037;-89
2021/01/17 02:54:36;;;;;;;93.43;41.28;;;;;;;-0.89;100.00;101122.75;5028288;28;20040;-90
2021/01/17 02:57:10;;;;;;;97.57;47.78;;;;;;;-0.93;100.00;101123.81;5030886;28;20045;-91
2021/01/17 03:00:09;;;;;;;96.70;44.78;;;;;;;-0.89;100.00;101128.00;5031620;28;20042;-91
2021/01/17 03:02:41;;;;;;;101.63;50.55;;;;;;;-0.86;100.00;101127.84;5028047;28;20052;-91
2021/01/17 03:05:06;;;;;;;105.18;53.35;;;;;;;-0.86;100.00;101127.84;5043240;28;20604;-91
2021/01/17 03:07:35;;;;;;;96.50;48.22;;;;;;;-0.84;100.00;101117.19;5027171;28;20025;-92
2021/01/17 03:10:03;;;;;;;103.65;48.90;;;;;;;-0.84;100.00;101112.78;5042044;28;20037;-90
2021/01/17 03:12:29;;;;;;;97.93;47.05;;;;;;;-0.83;100.00;101124.19;5037222;28;20092;-91
2021/01/17 03:15:00;;;;;;;93.60;44.72;;;;;;;-0.86;100.00;101124.34;5046111;28;20041;-92
2021/01/17 03:17:26;;;;;;;104.72;48.88;;;;;;;-0.85;100.00;101129.53;5028178;28;20056;-90
2021/01/17 03:19:51;;;;;;;104.20;51.72;;;;;;;-0.79;100.00;101125.72;5031394;28;20378;-90
2021/01/17 03:22:17;;;;;;;105.28;50.28;;;;;;;-0.79;100.00;101129.19;5030495;28;20021;-91
2021/01/17 03:24:42;;;;;;;103.78;49.05;;;;;;;-0.81;100.00;101128.41;5028047;28;20053;-91
2021/01/17 03:27:08;;;;;;;109.47;54.50;;;;;;;-0.75;100.00;101137.78;5030856;28;20048;-91
2021/01/17 03:29:33;;;;;;;110.47;54.08;;;;;;;-0.80;100.00;101132.78;5030403;28;20041;-90
2021/01/17 03:31:59;;;;;;;97.03;45.92;;;;;;;-0.82;100.00;101128.53;5029547;28;20045;-90
2021/01/17 03:34:24;;;;;;;106.45;47.60;;;;;;;-0.83;100.00;101130.31;5038146;28;20154;-90
2021/01/17 03:36:50;;;;;;;109.20;48.72;;;;;;;-0.83;100.00;101125.03;5046659;28;20049;-91
2021/01/17 03:39:15;;;;;;;108.85;48.33;;;;;;;-0.77;100.00;101129.97;5032531;28;20124;-90
2021/01/17 03:41:41;;;;;;;102.72;49.33;;;;;;;-0.79;100.00;101123.94;5031398;28;20021;-90
2021/01/17 03:44:06;;;;;;;100.95;47.42;;;;;;;-0.80;100.00;101129.28;5020397;28;20034;-90
2021/01/17 03:46:39;;;;;;;114.82;54.63;;;;;;;-0.76;100.00;101129.03;5044153;28;20084;-89
2021/01/17 03:49:12;;;;;;;118.93;52.42;;;;;;;-0.77;100.00;101132.59;5030767;28;20056;-90
2021/01/17 03:51:41;;;;;;;105.20;49.67;;;;;;;-0.80;100.00;101124.88;5024429;28;20100;-90
2021/01/17 03:54:09;;;;;;;104.05;47.45;;;;;;;-0.80;100.00;101122.25;5028838;28;20045;-89
2021/01/17 03:56:37;;;;;;;114.75;55.42;;;;;;;-0.76;100.00;101113.22;5030691;28;20037;-89
2021/01/17 03:59:02;;;;;;;113.80;53.38;;;;;;;-0.73;100.00;101107.78;5031578;28;20064;-89
2021/01/17 04:01:34;;;;;;;118.30;49.50;;;;;;;-0.80;100.00;101122.25;5031523;28;20037;-89
2021/01/17 04:04:03;;;;;;;120.22;53.13;;;;;;;-0.79;100.00;101116.03;5032735;28;20045;-89
2021/01/17 04:06:30;;;;;;;125.68;52.15;;;;;;;-0.80;100.00;101119.59;5036162;28;20103;-89
2021/01/17 04:08:56;;;;;;;110.70;47.40;;;;;;;-0.83;100.00;101113.66;5031045;28;20033;-91
2021/01/17 04:11:31;;;;;;;117.78;56.05;;;;;;;-0.78;100.00;101108.97;5027969;28;20029;-91
2021/01/17 04:13:57;;;;;;;123.90;53.45;;;;;;;-0.79;100.00;101108.13;5029756;28;20096;-91
2021/01/17 04:16:36;;;;;;;97.10;39.08;;;;;;;-0.82;100.00;101121.47;5030643;28;20099;-90
2021/01/17 04:19:20;;;;;;;104.15;44.10;;;;;;;-0.82;100.00;101116.19;5014788;28;20436;-91
2021/01/17 04:21:46;;;;;;;126.15;57.50;;;;;;;-0.79;100.00;101120.44;5034228;28;20022;-89
2021/01/17 04:24:11;;;;;;;116.78;50.25;;;;;;;-0.81;100.00;101123.16;5031544;28;20037;-91
2021/01/17 04:26:47;;;;;;;110.55;43.67;;;;;;;-0.80;100.00;101114.34;5033491;28;20498;-90
2021/01/17 04:29:18;;;;;;;129.73;55.33;;;;;;;-0.80;100.00;101118.75;5029750;28;20095;-90
2021/01/17 04:31:49;;;;;;;122.53;52.80;;;;;;;-0.78;100.00;101124.78;5032952;28;20042;-89
2021/01/17 04:34:27;;;;;;;127.57;51.42;;;;;;;-0.77;100.00;101115.94;5032282;28;20064;-91
2021/01/17 04:36:54;;;;;;;134.48;53.75;;;;;;;-0.76;100.00;101110.59;5022935;28;20045;-92
2021/01/17 04:39:28;;;;;;;126.85;52.22;;;;;;;-0.79;100.00;101110.75;5025821;28;20048;-90
2021/01/17 04:42:01;;;;;;;130.77;56.22;;;;;;;-0.75;100.00;101112.31;5034540;28;21474;-92
2021/01/17 04:44:38;;;;;;;105.32;41.30;;;;;;;-0.79;100.00;101110.75;5028180;28;20037;-89
2021/01/17 04:47:20;;;;;;;125.43;52.47;;;;;;;-0.77;100.00;101102.78;5031812;28;20136;-89
2021/01/17 04:50:12;;;;;;;130.48;52.00;;;;;;;-0.76;100.00;101107.94;5031869;28;20045;-90
2021/01/17 04:56:20;;;;;;;119.57;47.92;;;;;;;-0.81;100.00;101101.22;5042837;28;20044;-90
2021/01/17 04:59:15;;;;;;;121.18;49.17;;;;;;;-0.79;100.00;101109.91;5031942;28;20713;-90
2021/01/17 05:01:52;;;;;;;108.82;42.63;;;;;;;-0.79;100.00;101107.28;5028850;28;20049;-90
2021/01/17 05:04:37;;;;;;;137.10;53.58;;;;;;;-0.80;100.00;101114.34;5025626;28;20042;-90
2021/01/17 05:07:41;;;;;;;131.98;51.88;;;;;;;-0.79;100.00;101116.03;5029074;28;20053;-89
2021/01/17 05:10:11;;;;;;;135.23;52.65;;;;;;;-0.79;100.00;101115.19;5013372;28;20060;-90
2021/01/17 05:13:09;;;;;;;136.57;57.28;;;;;;;-0.73;100.00;101109.56;5030474;28;20054;-92
2021/01/17 05:15:42;;;;;;;127.35;47.63;;;;;;;-0.77;100.00;101098.34;5046951;28;20049;-90
2021/01/17 05:18:10;;;;;;;138.55;57.78;;;;;;;-0.72;100.00;101098.97;5031100;28;20410;-89
2021/01/17 05:20:42;;;;;;;134.60;48.90;;;;;;;-0.73;100.00;101093.75;5032711;28;20494;-89
2021/01/17 05:23:22;;;;;;;144.38;52.55;;;;;;;-0.74;100.00;101092.91;5033799;28;20021;-89
2021/01/17 05:26:01;;;;;;;123.70;51.28;;;;;;;-0.75;100.00;101091.22;5040292;28;20040;-91
2021/01/17 05:28:33;;;;;;;126.93;50.97;;;;;;;-0.74;100.00;101108.72;5028712;28;20382;-90
2021/01/17 05:31:04;;;;;;;131.23;46.58;;;;;;;-0.75;100.00;101103.53;5006315;28;20308;-89
2021/01/17 05:33:39;;;;;;;147.20;59.83;;;;;;;-0.67;100.00;101098.69;5030592;28;20029;-89
2021/01/17 05:36:15;;;;;;;138.00;53.53;;;;;;;-0.73;100.00;101099.03;5028942;28;20067;-89
2021/01/17 05:38:42;;;;;;;128.57;50.25;;;;;;;-0.74;100.00;101102.59;5042087;28;20132;-88
2021/01/17 05:41:26;;;;;;;128.70;48.50;;;;;;;-0.72;100.00;101104.22;5031170;28;20132;-90
2021/01/17 05:44:28;;;;;;;129.45;48.40;;;;;;;-0.75;100.00;101112.31;5025803;28;20053;-90
2021/01/17 05:47:10;;;;;;;130.93;52.05;;;;;;;-0.72;100.00;101112.13;5012382;28;20056;-89
2021/01/17 05:49:36;;;;;;;127.15;47.00;;;;;;;-0.72;100.00;101112.13;5021789;28;20124;-89
2021/01/17 05:52:40;;;;;;;138.80;55.50;;;;;;;-0.73;100.00;101115.69;5045646;28;20041;-88
2021/01/17 05:55:15;;;;;;;135.27;49.65;;;;;;;-0.73;100.00;101110.41;5028852;28;20069;-90
2021/01/17 05:57:41;;;;;;;137.73;52.80;;;;;;;-0.69;100.00;101106.69;5026094;28;20057;-91
2021/01/17 06:00:08;;;;;;;140.30;57.33;;;;;;;-0.64;100.00;101116.13;5030085;28;20067;-90
2021/01/17 06:02:38;;;;;;;143.32;55.20;;;;;;;-0.61;100.00;101118.59;5034021;28;20042;-90
2021/01/17 06:05:13;;;;;;;138.07;55.05;;;;;;;-0.65;100.00;101115.28;5029143;28;20042;-90
2021/01/17 06:07:54;;;;;;;131.15;51.25;;;;;;;-0.66;100.00;101107.44;4999463;28;20390;-90
2021/01/17 06:10:30;;;;;;;134.63;51.80;;;;;;;-0.68;100.00;101103.09;5024599;28;20041;-89
2021/01/17 06:12:58;;;;;;;142.07;53.20;;;;;;;-0.65;100.00;101114.44;5029027;28;20028;-88
2021/01/17 06:15:44;;;;;;;134.52;47.70;;;;;;;-0.68;100.00;101112.81;5014356;28;20026;-89
2021/01/17 06:18:17;;;;;;;125.63;44.47;;;;;;;-0.70;100.00;101115.50;5015409;28;20061;-91
2021/01/17 06:20:54;;;;;;;137.55;51.78;;;;;;;-0.69;100.00;101116.38;5010071;28;20068;-90
2021/01/17 06:23:34;;;;;;;104.65;34.15;;;;;;;-0.70;100.00;101119.94;5037742;28;20048;-89
2021/01/17 06:26:05;;;;;;;109.63;39.03;;;;;;;-0.69;100.00;101119.88;5028548;28;20041;-91
2021/01/17 06:28:44;;;;;;;120.30;44.13;;;;;;;-0.66;100.00;101123.25;5027795;28;20585;-89
2021/01/17 06:31:33;;;;;;;145.95;59.33;;;;;;;-0.59;100.00;101120.19;5031614;28;20454;-91
2021/01/17 06:34:17;;;;;;;131.38;45.83;;;;;;;-0.66;100.00;101115.34;5047828;28;20021;-91
2021/01/17 06:37:04;;;;;;;132.05;49.63;;;;;;;-0.65;100.00;101114.44;5030422;28;20493;-90
2021/01/17 06:39:43;;;;;;;147.55;55.30;;;;;;;-0.65;100.00;101117.06;5024358;28;20080;-90
2021/01/17 06:42:11;;;;;;;145.63;56.38;;;;;;;-0.60;100.00;101115.03;5028900;28;20072;-92
2021/01/17 06:44:41;;;;;;;143.73;53.75;;;;;;;-0.62;100.00;101112.47;5049405;28;20026;-89
2021/01/17 06:47:14;;;;;;;146.98;53.53;;;;;;;-0.59;100.00;101119.34;5045592;28;20104;-90
2021/01/17 06:49:39;;;;;;;149.32;56.17;;;;;;;-0.58;100.00;101119.25;5047911;28;20127;-90
2021/01/17 06:52:05;;;;;;;178.75;59.72;;;;;;;-0.55;100.00;101113.81;5032603;28;20127;-89
2021/01/17 06:54:46;;;;;;;158.45;55.72;;;;;;;-0.54;100.00;101125.22;5033937;28;20033;-91
2021/01/17 06:57:14;;;;;;;159.77;54.20;;;;;;;-0.59;100.00;101122.84;5051422;28;20032;-90
2021/01/17 07:00:14;;;;;;;173.57;58.30;;;;;;;-0.58;100.00;101134.22;5047229;28;20048;-89
2021/01/17 07:03:07;;;;;;;147.60;47.47;;;;;;;-0.62;100.00;101135.34;5024590;28;20048;-89
2021/01/17 07:06:09;;;;;;;164.05;51.88;;;;;;;-0.61;100.00;101155.47;5024786;28;20067;-90
2021/01/17 07:09:13;;;;;;;128.95;40.85;;;;;;;-0.65;100.00;101153.97;5003635;28;20045;-90
2021/01/17 07:12:22;;;;;;;169.00;56.75;;;;;;;-0.59;100.00;101158.91;5028164;28;20091;-90
2021/01/17 07:15:03;;;;;;;175.57;57.13;;;;;;;-0.61;100.00;101166.03;5023598;28;20478;-91
2021/01/17 07:17:35;;;;;;;179.00;62.80;;;;;;;-0.57;100.00;101163.16;5024534;28;20308;-89
2021/01/17 07:20:05;;;;;;;164.55;52.53;;;;;;;-0.59;100.00;101162.38;5025244;28;20041;-89
2021/01/17 07:22:32;;;;;;;143.15;43.15;;;;;;;-0.61;100.00;101161.59;5024666;28;20513;-91
2021/01/17 07:24:59;;;;;;;157.60;49.47;;;;;;;-0.56;100.00;101167.47;5027227;28;20037;-89
2021/01/17 07:27:54;;;;;;;150.95;49.85;;;;;;;-0.57;100.00;101172.84;5024559;28;20060;-91
2021/01/17 07:30:29;;;;;;;132.35;37.83;;;;;;;-0.57;100.00;101167.59;5030342;28;20033;-89
2021/01/17 07:32:55;;;;;;;166.98;55.88;;;;;;;-0.54;100.00;101185.88;5028229;28;20128;-90
2021/01/17 07:35:26;;;;;;;150.02;43.45;;;;;;;-0.54;100.00;101183.22;5027499;28;20182;-90
2021/01/17 07:37:56;;;;;;;139.07;41.28;;;;;;;-0.54;100.00;101180.59;5027254;28;20087;-91
2021/01/17 07:40:57;;;;;;;155.15;49.83;;;;;;;-0.54;100.00;101185.88;5030717;28;20033;-90
2021/01/17 07:43:26;;;;;;;175.50;56.60;;;;;;;-0.48;100.00;101193.44;5026852;28;20490;-91
2021/01/17 07:45:56;;;;;;;176.40;57.65;;;;;;;-0.49;100.00;101189.09;5028955;28;20058;-91
2021/01/17 07:48:23;;;;;;;159.02;54.42;;;;;;;-0.49;100.00;101197.00;5027008;28;20197;-89
2021/01/17 07:50:50;;;;;;;150.73;51.58;;;;;;;-0.50;100.00;101192.66;5024561;28;20037;-88
2021/01/17 07:53:37;;;;;;;179.63;61.33;;;;;;;-0.46;100.00;101192.44;5026969;28;20045;-90
2021/01/17 07:56:13;;;;;;;147.20;47.00;;;;;;;-0.48;100.00;101202.19;5026040;28;20065;-91
2021/01/17 07:58:46;;;;;;;149.13;51.60;;;;;;;-0.47;100.00;101203.88;5018315;28;20045;-90
2021/01/17 08:01:34;;;;;;;146.13;53.50;;;;;;;-0.46;100.00;101196.84;5033256;28;20043;-90
2021/01/17 08:04:02;;;;;;;142.93;50.45;;;;;;;-0.42;100.00;101205.44;5029404;28;20498;-91
2021/01/17 08:06:36;;;;;;;144.05;52.38;;;;;;;-0.43;100.00;101204.59;5027557;28;20144;-90
2021/01/17 08:09:19;;;;;;;138.63;52.60;;;;;;;-0.43;100.00;101212.50;5022215;28;20042;-89
2021/01/17 08:11:56;;;;;;;143.32;52.47;;;;;;;-0.41;100.00;101207.97;5044739;28;20045;-90
2021/01/17 08:14:30;;;;;;;131.05;51.45;;;;;;;-0.36;100.00;101220.94;5026486;28;20029;-92
2021/01/17 08:17:19;;;;;;;122.88;44.45;;;;;;;-0.40;100.00;101224.66;5026674;28;20045;-89
2021/01/17 08:19:53;;;;;;;127.07;45.55;;;;;;;-0.40;100.00;101222.88;5005373;28;20482;-89
2021/01/17 08:22:19;;;;;;;143.02;51.22;;;;;;;-0.36;100.00;101227.03;5024622;28;20038;-91
2021/01/17 08:24:49;;;;;;;120.60;39.15;;;;;;;-0.37;100.00;101233.25;5030284;28;20055;-89
2021/01/17 08:27:32;;;;;;;130.93;51.15;;;;;;;-0.32;100.00;101233.84;5023515;28;20076;-90
2021/01/17 08:30:02;;;;;;;116.50;44.28;;;;;;;-0.35;100.00;101239.28;5033628;28;20091;-90
2021/01/17 08:32:45;;;;;;;128.77;48.05;;;;;;;-0.31;100.00;101237.34;5032628;28;20060;-91
2021/01/17 08:38:05;;;;;;;123.00;45.03;;;;;;;-0.31;100.00;101232.09;5040948;28;20549;-90
2021/01/17 08:40:32;;;;;;;135.00;50.80;;;;;;;-0.32;100.00;101233.84;5025383;28;20490;-91
2021/01/17 08:43:15;;;;;;;132.43;47.03;;;;;;;-0.30;100.00;101237.25;5029941;28;20045;-91
2021/01/17 08:45:48;;;;;;;132.90;48.60;;;;;;;-0.29;100.00;101246.00;5029764;28;20045;-89
2021/01/17 08:48:16;;;;;;;124.47;43.45;;;;;;;-0.31;100.00;101254.03;5024989;28;20041;-89
2021/01/17 08:50:53;;;;;;;138.05;52.05;;;;;;;-0.28;100.00;101251.22;5026466;28;20045;-91
2021/01/17 08:53:33;;;;;;;133.90;51.00;;;;;;;-0.28;100.00;101245.09;5009345;28;20482;-91
2021/01/17 08:56:20;;;;;;;142.18;55.00;;;;;;;-0.26;100.00;101257.28;5026933;28;20038;-90
2021/01/17 08:58:48;;;;;;;150.70;54.17;;;;;;;-0.28;100.00;101253.84;4986984;28;20092;-90
2021/01/17 09:01:14;;;;;;;131.10;49.35;;;;;;;-0.31;100.00;101248.75;5028325;28;20060;-90
2021/01/17 09:03:43;;;;;;;146.07;53.33;;;;;;;-0.29;100.00;101265.34;5028056;28;20046;-90
2021/01/17 09:06:11;;;;;;;127.28;45.88;;;;;;;-0.30;100.00;101271.53;5027268;28;20938;-90
2021/01/17 09:08:41;;;;;;;141.95;53.50;;;;;;;-0.28;100.00;101282.88;5030652;28;20052;-90
2021/01/17 09:11:37;;;;;;;149.32;55.88;;;;;;;-0.22;100.00;101288.75;5029480;28;20045;-90
2021/01/17 09:14:13;;;;;;;144.95;57.28;;;;;;;-0.21;100.00;101290.44;5012458;28;20401;-90
2021/01/17 09:16:53;;;;;;;140.65;49.95;;;;;;;-0.24;100.00;101287.03;5024412;28;20103;-91
2021/01/17 09:19:23;;;;;;;137.57;52.25;;;;;;;-0.22;100.00;101286.13;5024467;28;20083;-90
2021/01/17 09:21:51;;;;;;;122.13;41.90;;;;;;;-0.24;100.00;101281.75;5017404;28;20494;-90
2021/01/17 09:24:22;;;;;;;141.73;55.90;;;;;;;-0.18;100.00;101290.28;5024080;28;20041;-90
2021/01/17 09:26:50;;;;;;;127.00;49.90;;;;;;;-0.20;100.00;101289.50;5040149;28;20041;-90
2021/01/17 09:29:20;;;;;;;140.15;50.83;;;;;;;-0.17;100.00;101302.53;5024722;28;20490;-89
2021/01/17 09:31:50;;;;;;;136.27;57.38;;;;;;;-0.15;100.00;101311.22;5025683;28;20466;-91
2021/01/17 09:34:21;;;;;;;132.57;51.53;;;;;;;-0.16;100.00;101302.47;5027549;28;20546;-90
2021/01/17 09:36:47;;;;;;;144.93;57.35;;;;;;;-0.09;100.00;101305.59;5027186;28;20103;-90
2021/01/17 09:39:13;;;;;;;119.70;46.85;;;;;;;-0.11;100.00;101302.22;5027794;28;20029;-90
2021/01/17 09:41:44;;;;;;;134.30;51.83;;;;;;;-0.05;100.00;101307.16;5013734;28;20071;-89
2021/01/17 09:44:14;;;;;;;128.88;50.58;;;;;;;-0.06;100.00;101310.72;5025905;28;20397;-90
2021/01/17 09:46:39;;;;;;;133.00;52.08;;;;;;;-0.08;100.00;101324.00;5020880;28;20487;-90
2021/01/17 09:49:04;;;;;;;121.78;48.50;;;;;;;-0.05;100.00;101336.19;5026207;28;20052;-90
2021/01/17 09:51:32;;;;;;;134.38;52.50;;;;;;;-0.04;100.00;101335.25;5027230;28;20038;-90
2021/01/17 09:53:58;;;;;;;132.25;54.20;;;;;;;-0.05;100.00;101330.91;5028265;28;20037;-90
2021/01/17 09:56:23;;;;;;;137.30;53.13;;;;;;;-0.01;100.00;101335.06;5023029;28;20037;-90
2021/01/17 09:58:50;;;;;;;129.68;51.22;;;;;;;-0.02;100.00;101330.75;5024057;28;20443;-91
2021/01/17 10:01:19;;;;;;;129.18;46.47;;;;;;;-0.04;100.00;101333.44;5025681;28;20612;-90
2021/01/17 10:03:49;;;;;;;139.50;54.63;;;;;;;0.03;100.00;101333.09;5041675;28;20045;-90
2021/01/17 10:06:16;;;;;;;133.35;49.78;;;;;;;0.01;100.00;101327.94;5013659;28;20041;-90
2021/01/17 10:08:44;;;;;;;127.85;46.97;;;;;;;0.01;100.00;101332.38;5034004;28;20061;-90
2021/01/17 10:11:11;;;;;;;131.07;49.08;;;;;;;-0.02;100.00;101334.22;5023278;28;20045;-89
2021/01/17 10:13:36;;;;;;;125.43;50.67;;;;;;;0.00;100.00;101342.06;5043091;28;20042;-90
2021/01/17 10:16:02;;;;;;;119.95;39.42;;;;;;;0.01;100.00;101346.41;5037897;28;20052;-90
2021/01/17 10:18:28;;;;;;;141.52;55.28;;;;;;;0.05;100.00;101345.28;5039933;28;20049;-90
2021/01/17 10:20:55;;;;;;;138.40;54.47;;;;;;;0.07;100.00;101347.88;5026000;28;20410;-91
2021/01/17 10:23:29;;;;;;;145.38;56.40;;;;;;;0.06;100.00;101354.94;5019921;28;20049;-90
2021/01/17 10:25:55;;;;;;;142.25;55.42;;;;;;;0.06;100.00;101365.50;5016743;28;20074;-90
2021/01/17 10:28:24;;;;;;;146.00;62.22;;;;;;;0.11;100.00;101362.59;5002223;28;20074;-90
2021/01/17 10:30:54;;;;;;;153.80;56.55;;;;;;;0.10;100.00;101374.94;4986114;28;20665;-89
2021/01/17 10:33:20;;;;;;;135.63;45.10;;;;;;;0.07;100.00;101372.47;4984942;28;20077;-90
2021/01/17 10:35:48;;;;;;;119.15;42.95;;;;;;;0.06;100.00;101368.13;5002164;28;20241;-89
2021/01/17 10:38:15;;;;;;;128.75;47.80;;;;;;;0.10;100.00;101358.25;4985656;28;20038;-90
2021/01/17 10:40:42;;;;;;;142.70;51.08;;;;;;;0.12;100.00;101357.22;4970503;28;20044;-90
2021/01/17 10:43:12;;;;;;;139.63;52.47;;;;;;;0.16;100.00;101369.31;4954827;28;20533;-90
2021/01/17 10:45:42;;;;;;;157.88;58.40;;;;;;;0.17;100.00;101365.75;5004345;28;20483;-90
2021/01/17 10:48:16;;;;;;;147.85;56.97;;;;;;;0.18;100.00;101372.72;4985115;28;20498;-90
2021/01/17 10:50:47;;;;;;;147.95;52.72;;;;;;;0.21;100.00;101367.28;4969640;28;20048;-89
2021/01/17 10:53:28;;;;;;;;;;;;;;;;;;;;;
2021/01/17 10:55:56;;;;;;;144.50;52.33;;;;;;;0.19;100.00;101366.50;4932005;28;20044;-89
2021/01/17 10:58:39;;;;;;;122.70;37.72;;;;;;;0.17;100.00;101359.59;4927591;28;20047;-89
2021/01/17 11:01:11;;;;;;;164.95;60.47;;;;;;;0.18;100.00;101372.72;4942530;28;20134;-89
2021/01/17 11:03:45;;;;;;;145.48;48.72;;;;;;;0.17;100.00;101368.41;4932856;28;20051;-89
2021/01/17 11:06:21;;;;;;;149.43;56.00;;;;;;;0.20;100.00;101370.88;4943620;28;20133;-89
2021/01/17 11:08:55;;;;;;;122.05;42.40;;;;;;;0.21;100.00;101363.81;4970341;28;20054;-89
2021/01/17 11:11:29;;;;;;;134.60;47.67;;;;;;;0.22;100.00;101368.97;4952862;28;20092;-88
2021/01/17 11:13:56;;;;;;;146.68;52.20;;;;;;;0.26;100.00;101366.16;4953955;28;20050;-89
2021/01/17 11:16:38;;;;;;;132.93;44.45;;;;;;;0.28;100.00;101364.31;4952077;28;20054;-88
2021/01/17 11:19:14;;;;;;;141.65;54.88;;;;;;;0.27;100.00;101365.25;4982164;28;20124;-88
2021/01/17 11:21:53;;;;;;;122.90;42.22;;;;;;;0.27;100.00;101362.63;4984536;28;20038;-88
2021/01/17 11:24:18;;;;;;;;;;;;;;;0.28;100.00;101367.78;4995096;28;20576;-88
2021/01/17 11:26:49;;;;;;;148.70;51.03;;;;;;;0.24;100.00;101361.00;4989373;28;19918;-90
2021/01/17 11:29:15;;;;;;;155.05;55.42;;;;;;;0.31;100.00;101362.34;5005867;28;20046;-89